sensor_id;sensor_type;location;lat;lon;timestamp;temperature;humidity
37678;DHT22;23517;50.390;8.616;2023-08-17T00:01:35;18.20;92.70
37678;DHT22;23517;50.390;8.616;2023-08-17T00:04:02;18.00;93.20
37678;DHT22;23517;50.390;8.616;2023-08-17T00:06:28;18.00;94.20
37678;DHT22;23517;50.390;8.616;2023-08-17T00:08:55;18.10;95.20
37678;DHT22;23517;50.390;8.616;2023-08-17T00:11:22;18.10;95.20
37678;DHT22;23517;50.390;8.616;2023-08-17T00:13:49;18.10;95.40
37678;DHT22;23517;50.390;8.616;2023-08-17T00:16:16;18.10;95.10
37678;DHT22;23517;50.390;8.616;2023-08-17T00:18:43;18.00;94.90
37678;DHT22;23517;50.390;8.616;2023-08-17T00:21:10;18.00;95.10
37678;DHT22;23517;50.390;8.616;2023-08-17T00:23:37;18.00;95.20
37678;DHT22;23517;50.390;8.616;2023-08-17T00:26:05;18.00;94.10
37678;DHT22;23517;50.390;8.616;2023-08-17T00:28:31;18.00;93.40
37678;DHT22;23517;50.390;8.616;2023-08-17T00:31:00;18.00;93.10
37678;DHT22;23517;50.390;8.616;2023-08-17T00:33:27;18.00;93.30
37678;DHT22;23517;50.390;8.616;2023-08-17T00:35:54;17.90;94.20
37678;DHT22;23517;50.390;8.616;2023-08-17T00:38:23;17.90;94.10
37678;DHT22;23517;50.390;8.616;2023-08-17T00:40:50;17.90;94.70
37678;DHT22;23517;50.390;8.616;2023-08-17T00:43:16;17.90;94.30
37678;DHT22;23517;50.390;8.616;2023-08-17T00:45:45;17.90;94.40
37678;DHT22;23517;50.390;8.616;2023-08-17T00:48:13;17.90;94.40
37678;DHT22;23517;50.390;8.616;2023-08-17T00:50:41;17.90;94.70
37678;DHT22;23517;50.390;8.616;2023-08-17T00:53:08;17.90;94.30
37678;DHT22;23517;50.390;8.616;2023-08-17T00:55:39;17.90;95.50
37678;DHT22;23517;50.390;8.616;2023-08-17T00:58:07;17.90;95.10
37678;DHT22;23517;50.390;8.616;2023-08-17T01:00:34;17.90;95.50
37678;DHT22;23517;50.390;8.616;2023-08-17T01:03:01;17.90;94.90
37678;DHT22;23517;50.390;8.616;2023-08-17T01:05:28;17.80;95.10
37678;DHT22;23517;50.390;8.616;2023-08-17T01:07:57;17.80;94.90
37678;DHT22;23517;50.390;8.616;2023-08-17T01:10:39;17.80;95.00
37678;DHT22;23517;50.390;8.616;2023-08-17T01:13:15;17.80;95.20
37678;DHT22;23517;50.390;8.616;2023-08-17T01:15:50;17.70;94.60
37678;DHT22;23517;50.390;8.616;2023-08-17T01:18:29;17.70;94.60
37678;DHT22;23517;50.390;8.616;2023-08-17T01:20:58;17.70;94.50
37678;DHT22;23517;50.390;8.616;2023-08-17T01:23:26;17.60;94.50
37678;DHT22;23517;50.390;8.616;2023-08-17T01:25:53;17.60;94.50
37678;DHT22;23517;50.390;8.616;2023-08-17T01:28:20;17.60;94.50
37678;DHT22;23517;50.390;8.616;2023-08-17T01:30:54;17.50;93.80
37678;DHT22;23517;50.390;8.616;2023-08-17T01:33:50;17.50;94.20
37678;DHT22;23517;50.390;8.616;2023-08-17T01:36:25;17.50;94.00
37678;DHT22;23517;50.390;8.616;2023-08-17T01:38:53;17.40;93.30
37678;DHT22;23517;50.390;8.616;2023-08-17T01:41:23;17.30;93.50
37678;DHT22;23517;50.390;8.616;2023-08-17T01:43:50;17.30;93.40
37678;DHT22;23517;50.390;8.616;2023-08-17T01:46:18;17.20;92.60
37678;DHT22;23517;50.390;8.616;2023-08-17T01:48:46;17.10;92.50
37678;DHT22;23517;50.390;8.616;2023-08-17T01:51:18;17.00;92.70
37678;DHT22;23517;50.390;8.616;2023-08-17T01:53:46;17.00;93.30
37678;DHT22;23517;50.390;8.616;2023-08-17T01:56:13;17.00;93.40
37678;DHT22;23517;50.390;8.616;2023-08-17T01:58:40;16.90;93.00
37678;DHT22;23517;50.390;8.616;2023-08-17T02:01:07;16.90;93.10
37678;DHT22;23517;50.390;8.616;2023-08-17T02:03:34;16.80;93.30
37678;DHT22;23517;50.390;8.616;2023-08-17T02:06:01;16.80;93.80
37678;DHT22;23517;50.390;8.616;2023-08-17T02:08:27;16.80;93.50
37678;DHT22;23517;50.390;8.616;2023-08-17T02:10:54;16.70;92.40
37678;DHT22;23517;50.390;8.616;2023-08-17T02:13:21;16.70;91.60
37678;DHT22;23517;50.390;8.616;2023-08-17T02:15:47;16.60;92.40
37678;DHT22;23517;50.390;8.616;2023-08-17T02:18:15;16.50;93.10
37678;DHT22;23517;50.390;8.616;2023-08-17T02:20:42;16.50;93.30
37678;DHT22;23517;50.390;8.616;2023-08-17T02:23:08;16.50;92.80
37678;DHT22;23517;50.390;8.616;2023-08-17T02:25:38;16.50;92.20
37678;DHT22;23517;50.390;8.616;2023-08-17T02:28:05;16.40;92.30
37678;DHT22;23517;50.390;8.616;2023-08-17T02:30:32;16.40;92.90
37678;DHT22;23517;50.390;8.616;2023-08-17T02:32:59;16.40;93.50
37678;DHT22;23517;50.390;8.616;2023-08-17T02:35:26;16.40;93.60
37678;DHT22;23517;50.390;8.616;2023-08-17T02:37:53;16.40;93.50
37678;DHT22;23517;50.390;8.616;2023-08-17T02:40:20;16.40;93.40
37678;DHT22;23517;50.390;8.616;2023-08-17T02:42:47;16.40;92.70
37678;DHT22;23517;50.390;8.616;2023-08-17T02:45:13;16.40;92.30
37678;DHT22;23517;50.390;8.616;2023-08-17T02:47:40;16.30;91.10
37678;DHT22;23517;50.390;8.616;2023-08-17T02:50:07;16.30;91.70
37678;DHT22;23517;50.390;8.616;2023-08-17T02:52:34;16.20;91.50
37678;DHT22;23517;50.390;8.616;2023-08-17T02:55:01;16.20;91.70
37678;DHT22;23517;50.390;8.616;2023-08-17T02:57:27;16.20;90.40
37678;DHT22;23517;50.390;8.616;2023-08-17T02:59:54;16.10;90.20
37678;DHT22;23517;50.390;8.616;2023-08-17T03:02:21;16.10;90.10
37678;DHT22;23517;50.390;8.616;2023-08-17T03:04:48;16.00;91.30
37678;DHT22;23517;50.390;8.616;2023-08-17T03:07:14;16.00;91.80
37678;DHT22;23517;50.390;8.616;2023-08-17T03:09:41;16.00;92.10
37678;DHT22;23517;50.390;8.616;2023-08-17T03:12:08;16.10;92.70
37678;DHT22;23517;50.390;8.616;2023-08-17T03:14:34;16.10;92.50
37678;DHT22;23517;50.390;8.616;2023-08-17T03:17:02;16.10;92.00
37678;DHT22;23517;50.390;8.616;2023-08-17T03:19:28;16.10;92.10
37678;DHT22;23517;50.390;8.616;2023-08-17T03:21:55;16.10;92.30
37678;DHT22;23517;50.390;8.616;2023-08-17T03:24:23;16.20;92.80
37678;DHT22;23517;50.390;8.616;2023-08-17T03:26:50;16.30;93.20
37678;DHT22;23517;50.390;8.616;2023-08-17T03:29:17;16.40;93.40
37678;DHT22;23517;50.390;8.616;2023-08-17T03:31:43;16.40;93.00
37678;DHT22;23517;50.390;8.616;2023-08-17T03:34:10;16.50;92.50
37678;DHT22;23517;50.390;8.616;2023-08-17T03:36:37;16.50;92.50
37678;DHT22;23517;50.390;8.616;2023-08-17T03:39:03;16.50;93.20
37678;DHT22;23517;50.390;8.616;2023-08-17T03:41:31;16.60;93.90
37678;DHT22;23517;50.390;8.616;2023-08-17T03:43:57;16.60;94.00
37678;DHT22;23517;50.390;8.616;2023-08-17T03:46:24;16.60;94.00
37678;DHT22;23517;50.390;8.616;2023-08-17T03:48:51;16.70;94.30
37678;DHT22;23517;50.390;8.616;2023-08-17T03:51:17;16.70;94.50
37678;DHT22;23517;50.390;8.616;2023-08-17T03:53:44;16.80;94.60
37678;DHT22;23517;50.390;8.616;2023-08-17T03:56:11;16.80;94.60
37678;DHT22;23517;50.390;8.616;2023-08-17T03:58:38;16.80;94.50
37678;DHT22;23517;50.390;8.616;2023-08-17T04:01:04;16.80;95.10
37678;DHT22;23517;50.390;8.616;2023-08-17T04:03:33;16.80;96.00
37678;DHT22;23517;50.390;8.616;2023-08-17T04:06:05;16.90;96.20
37678;DHT22;23517;50.390;8.616;2023-08-17T04:08:33;17.00;96.20
37678;DHT22;23517;50.390;8.616;2023-08-17T04:10:59;17.00;96.10
37678;DHT22;23517;50.390;8.616;2023-08-17T04:13:26;17.00;96.20
37678;DHT22;23517;50.390;8.616;2023-08-17T04:15:54;17.00;96.10
37678;DHT22;23517;50.390;8.616;2023-08-17T04:18:21;17.00;96.30
37678;DHT22;23517;50.390;8.616;2023-08-17T04:20:47;17.00;96.40
37678;DHT22;23517;50.390;8.616;2023-08-17T04:23:14;17.10;96.60
37678;DHT22;23517;50.390;8.616;2023-08-17T04:25:41;17.10;96.70
37678;DHT22;23517;50.390;8.616;2023-08-17T04:28:08;17.10;96.80
37678;DHT22;23517;50.390;8.616;2023-08-17T04:30:35;17.20;96.60
37678;DHT22;23517;50.390;8.616;2023-08-17T04:33:02;17.20;96.80
37678;DHT22;23517;50.390;8.616;2023-08-17T04:35:29;17.30;97.10
37678;DHT22;23517;50.390;8.616;2023-08-17T04:37:55;17.30;96.80
37678;DHT22;23517;50.390;8.616;2023-08-17T04:40:22;17.40;96.20
37678;DHT22;23517;50.390;8.616;2023-08-17T04:42:49;17.40;95.90
37678;DHT22;23517;50.390;8.616;2023-08-17T04:45:18;17.40;95.40
37678;DHT22;23517;50.390;8.616;2023-08-17T04:47:45;17.40;95.70
37678;DHT22;23517;50.390;8.616;2023-08-17T04:50:12;17.40;95.20
37678;DHT22;23517;50.390;8.616;2023-08-17T04:52:44;17.50;95.90
37678;DHT22;23517;50.390;8.616;2023-08-17T04:55:12;17.50;95.60
37678;DHT22;23517;50.390;8.616;2023-08-17T04:57:39;17.60;95.70
37678;DHT22;23517;50.390;8.616;2023-08-17T05:00:07;17.60;95.40
37678;DHT22;23517;50.390;8.616;2023-08-17T05:02:36;17.70;94.60
37678;DHT22;23517;50.390;8.616;2023-08-17T05:05:06;17.70;94.10
37678;DHT22;23517;50.390;8.616;2023-08-17T05:07:34;17.80;94.20
37678;DHT22;23517;50.390;8.616;2023-08-17T05:10:01;17.90;93.00
37678;DHT22;23517;50.390;8.616;2023-08-17T05:12:28;18.00;92.20
37678;DHT22;23517;50.390;8.616;2023-08-17T05:14:55;17.90;92.20
37678;DHT22;23517;50.390;8.616;2023-08-17T05:17:21;17.90;93.10
37678;DHT22;23517;50.390;8.616;2023-08-17T05:19:48;17.90;91.70
37678;DHT22;23517;50.390;8.616;2023-08-17T05:22:15;17.90;92.00
37678;DHT22;23517;50.390;8.616;2023-08-17T05:24:42;17.90;92.70
37678;DHT22;23517;50.390;8.616;2023-08-17T05:27:09;17.90;93.00
37678;DHT22;23517;50.390;8.616;2023-08-17T05:29:36;17.90;92.60
37678;DHT22;23517;50.390;8.616;2023-08-17T05:32:02;18.00;93.20
37678;DHT22;23517;50.390;8.616;2023-08-17T05:34:29;18.00;93.30
37678;DHT22;23517;50.390;8.616;2023-08-17T05:36:56;18.10;92.80
37678;DHT22;23517;50.390;8.616;2023-08-17T05:39:23;18.10;93.40
37678;DHT22;23517;50.390;8.616;2023-08-17T05:41:52;18.20;93.30
37678;DHT22;23517;50.390;8.616;2023-08-17T05:44:19;18.20;92.70
37678;DHT22;23517;50.390;8.616;2023-08-17T05:46:45;18.30;91.60
37678;DHT22;23517;50.390;8.616;2023-08-17T05:49:12;18.40;91.60
37678;DHT22;23517;50.390;8.616;2023-08-17T05:51:39;18.40;90.50
37678;DHT22;23517;50.390;8.616;2023-08-17T05:54:05;18.50;90.40
37678;DHT22;23517;50.390;8.616;2023-08-17T05:56:32;18.50;89.80
37678;DHT22;23517;50.390;8.616;2023-08-17T05:58:59;18.60;90.60
37678;DHT22;23517;50.390;8.616;2023-08-17T06:01:26;18.60;89.50
37678;DHT22;23517;50.390;8.616;2023-08-17T06:03:52;18.60;89.10
37678;DHT22;23517;50.390;8.616;2023-08-17T06:06:20;18.60;89.30
37678;DHT22;23517;50.390;8.616;2023-08-17T06:08:46;18.70;87.40
37678;DHT22;23517;50.390;8.616;2023-08-17T06:11:13;18.70;87.00
37678;DHT22;23517;50.390;8.616;2023-08-17T06:13:40;18.70;86.80
37678;DHT22;23517;50.390;8.616;2023-08-17T06:16:06;18.70;86.20
37678;DHT22;23517;50.390;8.616;2023-08-17T06:18:33;18.80;86.50
37678;DHT22;23517;50.390;8.616;2023-08-17T06:21:00;18.80;86.10
37678;DHT22;23517;50.390;8.616;2023-08-17T06:23:28;18.90;86.40
37678;DHT22;23517;50.390;8.616;2023-08-17T06:25:58;18.90;85.80
37678;DHT22;23517;50.390;8.616;2023-08-17T06:28:26;18.90;84.50
37678;DHT22;23517;50.390;8.616;2023-08-17T06:30:54;18.90;83.90
37678;DHT22;23517;50.390;8.616;2023-08-17T06:33:22;18.90;84.70
37678;DHT22;23517;50.390;8.616;2023-08-17T06:35:49;18.80;85.20
37678;DHT22;23517;50.390;8.616;2023-08-17T06:38:16;18.70;86.40
37678;DHT22;23517;50.390;8.616;2023-08-17T06:40:42;18.70;86.80
37678;DHT22;23517;50.390;8.616;2023-08-17T06:43:09;18.70;87.30
37678;DHT22;23517;50.390;8.616;2023-08-17T06:45:37;18.80;87.40
37678;DHT22;23517;50.390;8.616;2023-08-17T06:48:04;18.80;86.60
37678;DHT22;23517;50.390;8.616;2023-08-17T06:50:31;18.90;86.70
37678;DHT22;23517;50.390;8.616;2023-08-17T06:52:58;19.00;85.80
37678;DHT22;23517;50.390;8.616;2023-08-17T06:55:24;19.10;85.70
37678;DHT22;23517;50.390;8.616;2023-08-17T06:57:51;19.10;85.10
37678;DHT22;23517;50.390;8.616;2023-08-17T07:00:18;19.00;84.80
37678;DHT22;23517;50.390;8.616;2023-08-17T07:02:48;19.10;84.60
37678;DHT22;23517;50.390;8.616;2023-08-17T07:05:21;19.10;84.50
37678;DHT22;23517;50.390;8.616;2023-08-17T07:07:48;19.10;85.40
37678;DHT22;23517;50.390;8.616;2023-08-17T07:10:14;19.20;84.00
37678;DHT22;23517;50.390;8.616;2023-08-17T07:12:41;19.30;82.40
37678;DHT22;23517;50.390;8.616;2023-08-17T07:15:08;19.20;82.80
37678;DHT22;23517;50.390;8.616;2023-08-17T07:17:36;19.20;82.50
37678;DHT22;23517;50.390;8.616;2023-08-17T07:20:04;19.20;83.40
37678;DHT22;23517;50.390;8.616;2023-08-17T07:22:43;19.30;82.70
37678;DHT22;23517;50.390;8.616;2023-08-17T07:25:11;19.30;82.80
37678;DHT22;23517;50.390;8.616;2023-08-17T07:27:37;19.40;82.00
37678;DHT22;23517;50.390;8.616;2023-08-17T07:30:06;19.40;81.90
37678;DHT22;23517;50.390;8.616;2023-08-17T07:32:34;19.50;82.00
37678;DHT22;23517;50.390;8.616;2023-08-17T07:35:01;19.70;80.50
37678;DHT22;23517;50.390;8.616;2023-08-17T07:37:27;20.10;80.30
37678;DHT22;23517;50.390;8.616;2023-08-17T07:39:59;21.40;74.90
37678;DHT22;23517;50.390;8.616;2023-08-17T07:42:26;23.50;57.00
37678;DHT22;23517;50.390;8.616;2023-08-17T07:44:53;25.00;46.40
37678;DHT22;23517;50.390;8.616;2023-08-17T07:49:47;26.90;36.20
37678;DHT22;23517;50.390;8.616;2023-08-17T07:52:16;26.80;37.10
37678;DHT22;23517;50.390;8.616;2023-08-17T07:54:43;26.40;36.20
37678;DHT22;23517;50.390;8.616;2023-08-17T07:57:11;26.00;38.40
37678;DHT22;23517;50.390;8.616;2023-08-17T07:59:38;27.00;36.00
37678;DHT22;23517;50.390;8.616;2023-08-17T08:02:04;27.40;33.00
37678;DHT22;23517;50.390;8.616;2023-08-17T08:04:31;26.80;34.30
37678;DHT22;23517;50.390;8.616;2023-08-17T08:06:58;26.20;35.20
37678;DHT22;23517;50.390;8.616;2023-08-17T08:09:24;25.20;38.90
37678;DHT22;23517;50.390;8.616;2023-08-17T08:11:51;25.20;38.50
37678;DHT22;23517;50.390;8.616;2023-08-17T08:14:18;24.80;41.30
37678;DHT22;23517;50.390;8.616;2023-08-17T08:16:45;24.80;42.40
37678;DHT22;23517;50.390;8.616;2023-08-17T08:19:11;24.40;42.20
37678;DHT22;23517;50.390;8.616;2023-08-17T08:21:38;24.00;44.80
37678;DHT22;23517;50.390;8.616;2023-08-17T08:24:05;23.80;46.30
37678;DHT22;23517;50.390;8.616;2023-08-17T08:26:43;23.60;47.60
37678;DHT22;23517;50.390;8.616;2023-08-17T08:29:10;23.70;47.70
37678;DHT22;23517;50.390;8.616;2023-08-17T08:31:37;23.80;46.30
37678;DHT22;23517;50.390;8.616;2023-08-17T08:34:03;23.80;46.60
37678;DHT22;23517;50.390;8.616;2023-08-17T08:36:30;23.70;46.60
37678;DHT22;23517;50.390;8.616;2023-08-17T08:38:57;23.40;47.00
37678;DHT22;23517;50.390;8.616;2023-08-17T08:41:26;23.30;47.50
37678;DHT22;23517;50.390;8.616;2023-08-17T08:43:54;23.10;47.50
37678;DHT22;23517;50.390;8.616;2023-08-17T08:46:23;22.80;49.50
37678;DHT22;23517;50.390;8.616;2023-08-17T08:48:52;22.60;50.40
37678;DHT22;23517;50.390;8.616;2023-08-17T08:51:26;22.40;52.30
37678;DHT22;23517;50.390;8.616;2023-08-17T08:54:01;22.20;53.70
37678;DHT22;23517;50.390;8.616;2023-08-17T08:56:32;22.20;53.90
37678;DHT22;23517;50.390;8.616;2023-08-17T08:59:02;22.20;54.80
37678;DHT22;23517;50.390;8.616;2023-08-17T09:01:30;22.20;55.30
37678;DHT22;23517;50.390;8.616;2023-08-17T09:04:01;22.30;56.00
37678;DHT22;23517;50.390;8.616;2023-08-17T09:06:29;22.50;54.80
37678;DHT22;23517;50.390;8.616;2023-08-17T09:08:58;22.90;52.80
37678;DHT22;23517;50.390;8.616;2023-08-17T09:11:26;23.00;51.80
37678;DHT22;23517;50.390;8.616;2023-08-17T09:13:53;23.40;50.20
37678;DHT22;23517;50.390;8.616;2023-08-17T09:16:20;25.20;44.80
37678;DHT22;23517;50.390;8.616;2023-08-17T09:18:52;27.60;35.10
37678;DHT22;23517;50.390;8.616;2023-08-17T09:21:21;28.40;32.10
37678;DHT22;23517;50.390;8.616;2023-08-17T09:23:55;28.00;32.80
37678;DHT22;23517;50.390;8.616;2023-08-17T09:26:30;27.40;35.10
37678;DHT22;23517;50.390;8.616;2023-08-17T09:29:00;26.70;36.10
37678;DHT22;23517;50.390;8.616;2023-08-17T09:31:31;26.40;37.00
37678;DHT22;23517;50.390;8.616;2023-08-17T09:33:58;26.10;36.80
37678;DHT22;23517;50.390;8.616;2023-08-17T09:36:35;26.00;37.30
37678;DHT22;23517;50.390;8.616;2023-08-17T09:41:29;25.40;38.70
37678;DHT22;23517;50.390;8.616;2023-08-17T09:43:56;25.90;40.20
37678;DHT22;23517;50.390;8.616;2023-08-17T09:46:23;27.00;37.80
37678;DHT22;23517;50.390;8.616;2023-08-17T09:48:52;27.30;35.70
37678;DHT22;23517;50.390;8.616;2023-08-17T09:51:19;27.00;35.50
37678;DHT22;23517;50.390;8.616;2023-08-17T09:53:52;26.60;35.60
37678;DHT22;23517;50.390;8.616;2023-08-17T09:56:26;26.40;37.30
37678;DHT22;23517;50.390;8.616;2023-08-17T09:58:55;26.30;37.30
37678;DHT22;23517;50.390;8.616;2023-08-17T10:01:22;26.10;37.30
37678;DHT22;23517;50.390;8.616;2023-08-17T10:03:50;25.60;39.00
37678;DHT22;23517;50.390;8.616;2023-08-17T10:06:22;25.80;37.60
37678;DHT22;23517;50.390;8.616;2023-08-17T10:08:54;26.30;37.20
37678;DHT22;23517;50.390;8.616;2023-08-17T10:11:24;26.70;35.40
37678;DHT22;23517;50.390;8.616;2023-08-17T10:13:59;27.00;35.50
37678;DHT22;23517;50.390;8.616;2023-08-17T10:16:35;27.00;35.80
37678;DHT22;23517;50.390;8.616;2023-08-17T10:21:51;27.20;34.60
37678;DHT22;23517;50.390;8.616;2023-08-17T10:24:20;26.90;33.90
37678;DHT22;23517;50.390;8.616;2023-08-17T10:26:47;26.70;34.10
37678;DHT22;23517;50.390;8.616;2023-08-17T10:29:22;26.60;35.00
37678;DHT22;23517;50.390;8.616;2023-08-17T10:31:49;26.70;34.40
37678;DHT22;23517;50.390;8.616;2023-08-17T10:34:16;26.80;34.40
37678;DHT22;23517;50.390;8.616;2023-08-17T10:36:44;26.80;34.30
37678;DHT22;23517;50.390;8.616;2023-08-17T10:39:19;26.80;34.10
37678;DHT22;23517;50.390;8.616;2023-08-17T10:41:51;26.60;35.50
37678;DHT22;23517;50.390;8.616;2023-08-17T10:44:42;26.30;37.20
37678;DHT22;23517;50.390;8.616;2023-08-17T10:47:27;26.10;37.30
37678;DHT22;23517;50.390;8.616;2023-08-17T10:50:06;25.90;37.40
37678;DHT22;23517;50.390;8.616;2023-08-17T10:52:50;25.60;38.00
37678;DHT22;23517;50.390;8.616;2023-08-17T10:55:35;25.40;39.00
37678;DHT22;23517;50.390;8.616;2023-08-17T10:58:07;25.40;39.50
37678;DHT22;23517;50.390;8.616;2023-08-17T11:00:41;25.30;38.70
37678;DHT22;23517;50.390;8.616;2023-08-17T11:03:19;25.40;38.50
37678;DHT22;23517;50.390;8.616;2023-08-17T11:05:52;25.40;38.70
37678;DHT22;23517;50.390;8.616;2023-08-17T11:11:14;25.90;38.40
37678;DHT22;23517;50.390;8.616;2023-08-17T11:13:43;26.20;37.30
37678;DHT22;23517;50.390;8.616;2023-08-17T11:16:13;26.60;35.70
37678;DHT22;23517;50.390;8.616;2023-08-17T11:18:47;26.80;35.20
37678;DHT22;23517;50.390;8.616;2023-08-17T11:21:18;27.00;34.60
37678;DHT22;23517;50.390;8.616;2023-08-17T11:23:46;27.10;34.60
37678;DHT22;23517;50.390;8.616;2023-08-17T11:26:16;27.20;34.50
37678;DHT22;23517;50.390;8.616;2023-08-17T11:28:44;27.20;34.30
37678;DHT22;23517;50.390;8.616;2023-08-17T11:31:12;27.10;34.70
37678;DHT22;23517;50.390;8.616;2023-08-17T11:33:41;26.60;35.80
37678;DHT22;23517;50.390;8.616;2023-08-17T11:36:08;26.30;36.60
37678;DHT22;23517;50.390;8.616;2023-08-17T11:38:38;26.30;37.70
37678;DHT22;23517;50.390;8.616;2023-08-17T11:41:06;26.10;39.40
37678;DHT22;23517;50.390;8.616;2023-08-17T11:43:35;25.90;36.80
37678;DHT22;23517;50.390;8.616;2023-08-17T11:46:02;25.70;37.90
37678;DHT22;23517;50.390;8.616;2023-08-17T11:48:30;25.60;37.30
37678;DHT22;23517;50.390;8.616;2023-08-17T11:51:02;25.30;38.10
37678;DHT22;23517;50.390;8.616;2023-08-17T11:53:34;25.20;39.90
37678;DHT22;23517;50.390;8.616;2023-08-17T11:56:08;25.00;41.20
37678;DHT22;23517;50.390;8.616;2023-08-17T11:58:41;25.10;41.70
37678;DHT22;23517;50.390;8.616;2023-08-17T12:01:13;25.10;41.60
37678;DHT22;23517;50.390;8.616;2023-08-17T12:03:43;25.10;42.10
37678;DHT22;23517;50.390;8.616;2023-08-17T12:07:50;25.00;41.60
37678;DHT22;23517;50.390;8.616;2023-08-17T12:10:19;25.00;42.00
37678;DHT22;23517;50.390;8.616;2023-08-17T12:12:47;24.80;42.50
37678;DHT22;23517;50.390;8.616;2023-08-17T12:15:17;24.90;43.50
37678;DHT22;23517;50.390;8.616;2023-08-17T12:17:47;25.00;42.20
37678;DHT22;23517;50.390;8.616;2023-08-17T12:20:20;25.10;41.70
37678;DHT22;23517;50.390;8.616;2023-08-17T12:22:47;25.10;41.70
37678;DHT22;23517;50.390;8.616;2023-08-17T12:25:14;25.20;41.60
37678;DHT22;23517;50.390;8.616;2023-08-17T12:27:41;25.30;40.80
37678;DHT22;23517;50.390;8.616;2023-08-17T12:30:13;25.20;41.70
37678;DHT22;23517;50.390;8.616;2023-08-17T12:32:42;25.20;41.80
37678;DHT22;23517;50.390;8.616;2023-08-17T12:35:09;25.20;41.10
37678;DHT22;23517;50.390;8.616;2023-08-17T12:37:38;25.30;41.00
37678;DHT22;23517;50.390;8.616;2023-08-17T12:40:07;25.40;40.80
37678;DHT22;23517;50.390;8.616;2023-08-17T12:42:37;25.70;40.30
37678;DHT22;23517;50.390;8.616;2023-08-17T12:45:10;25.80;40.20
37678;DHT22;23517;50.390;8.616;2023-08-17T12:47:46;25.90;40.10
37678;DHT22;23517;50.390;8.616;2023-08-17T12:50:17;25.80;39.10
37678;DHT22;23517;50.390;8.616;2023-08-17T12:52:51;25.90;39.50
37678;DHT22;23517;50.390;8.616;2023-08-17T12:55:25;26.10;38.90
37678;DHT22;23517;50.390;8.616;2023-08-17T12:57:55;26.30;38.70
37678;DHT22;23517;50.390;8.616;2023-08-17T13:00:27;26.50;37.30
37678;DHT22;23517;50.390;8.616;2023-08-17T13:02:56;26.50;37.30
37678;DHT22;23517;50.390;8.616;2023-08-17T13:05:26;26.50;37.50
37678;DHT22;23517;50.390;8.616;2023-08-17T13:07:57;26.50;37.00
37678;DHT22;23517;50.390;8.616;2023-08-17T13:10:24;26.40;36.70
37678;DHT22;23517;50.390;8.616;2023-08-17T13:12:58;26.20;37.70
37678;DHT22;23517;50.390;8.616;2023-08-17T13:15:27;26.00;38.70
37678;DHT22;23517;50.390;8.616;2023-08-17T13:17:57;25.90;38.50
37678;DHT22;23517;50.390;8.616;2023-08-17T13:20:32;25.90;39.10
37678;DHT22;23517;50.390;8.616;2023-08-17T13:22:59;25.90;39.00
37678;DHT22;23517;50.390;8.616;2023-08-17T13:25:26;25.80;38.80
37678;DHT22;23517;50.390;8.616;2023-08-17T13:27:52;25.80;38.70
37678;DHT22;23517;50.390;8.616;2023-08-17T13:30:19;25.90;38.20
37678;DHT22;23517;50.390;8.616;2023-08-17T13:32:46;25.80;38.10
37678;DHT22;23517;50.390;8.616;2023-08-17T13:35:13;25.60;38.50
37678;DHT22;23517;50.390;8.616;2023-08-17T13:37:42;25.60;39.50
37678;DHT22;23517;50.390;8.616;2023-08-17T13:40:09;25.80;39.30
37678;DHT22;23517;50.390;8.616;2023-08-17T13:42:36;25.90;38.90
37678;DHT22;23517;50.390;8.616;2023-08-17T13:45:05;25.90;38.90
37678;DHT22;23517;50.390;8.616;2023-08-17T13:47:32;26.10;38.90
37678;DHT22;23517;50.390;8.616;2023-08-17T13:49:59;26.30;38.10
37678;DHT22;23517;50.390;8.616;2023-08-17T13:52:26;26.50;37.30
37678;DHT22;23517;50.390;8.616;2023-08-17T13:54:53;26.60;37.30
37678;DHT22;23517;50.390;8.616;2023-08-17T13:57:20;26.70;37.30
37678;DHT22;23517;50.390;8.616;2023-08-17T13:59:47;26.90;37.30
37678;DHT22;23517;50.390;8.616;2023-08-17T14:02:14;26.80;36.50
37678;DHT22;23517;50.390;8.616;2023-08-17T14:04:40;26.80;37.80
37678;DHT22;23517;50.390;8.616;2023-08-17T14:07:10;26.80;37.30
37678;DHT22;23517;50.390;8.616;2023-08-17T14:09:37;26.60;37.30
37678;DHT22;23517;50.390;8.616;2023-08-17T14:12:04;26.60;37.30
37678;DHT22;23517;50.390;8.616;2023-08-17T14:14:31;26.60;37.30
37678;DHT22;23517;50.390;8.616;2023-08-17T14:16:58;26.60;37.30
37678;DHT22;23517;50.390;8.616;2023-08-17T14:19:24;26.50;37.70
37678;DHT22;23517;50.390;8.616;2023-08-17T14:21:51;26.60;37.30
37678;DHT22;23517;50.390;8.616;2023-08-17T14:24:18;26.60;37.40
37678;DHT22;23517;50.390;8.616;2023-08-17T14:26:45;26.90;37.30
37678;DHT22;23517;50.390;8.616;2023-08-17T14:29:12;27.00;37.80
37678;DHT22;23517;50.390;8.616;2023-08-17T14:31:38;27.20;36.20
37678;DHT22;23517;50.390;8.616;2023-08-17T14:34:05;27.30;36.00
37678;DHT22;23517;50.390;8.616;2023-08-17T14:36:33;27.20;36.20
37678;DHT22;23517;50.390;8.616;2023-08-17T14:38:59;27.00;37.00
37678;DHT22;23517;50.390;8.616;2023-08-17T14:41:26;26.90;37.20
37678;DHT22;23517;50.390;8.616;2023-08-17T14:43:58;27.00;37.50
37678;DHT22;23517;50.390;8.616;2023-08-17T14:46:29;27.00;37.80
37678;DHT22;23517;50.390;8.616;2023-08-17T14:48:57;26.80;37.30
37678;DHT22;23517;50.390;8.616;2023-08-17T14:51:24;26.60;38.20
37678;DHT22;23517;50.390;8.616;2023-08-17T14:53:57;26.60;38.30
37678;DHT22;23517;50.390;8.616;2023-08-17T14:56:24;26.40;38.60
37678;DHT22;23517;50.390;8.616;2023-08-17T14:58:50;26.50;38.10
37678;DHT22;23517;50.390;8.616;2023-08-17T15:01:17;26.80;37.40
37678;DHT22;23517;50.390;8.616;2023-08-17T15:03:45;27.10;37.20
37678;DHT22;23517;50.390;8.616;2023-08-17T15:06:13;27.30;36.80
37678;DHT22;23517;50.390;8.616;2023-08-17T15:08:57;27.40;35.30
37678;DHT22;23517;50.390;8.616;2023-08-17T15:11:24;27.30;36.20
37678;DHT22;23517;50.390;8.616;2023-08-17T15:13:51;27.10;36.50
37678;DHT22;23517;50.390;8.616;2023-08-17T15:16:17;26.90;36.80
37678;DHT22;23517;50.390;8.616;2023-08-17T15:18:51;26.70;37.90
37678;DHT22;23517;50.390;8.616;2023-08-17T15:21:18;26.80;37.30
37678;DHT22;23517;50.390;8.616;2023-08-17T15:23:46;26.90;36.00
37678;DHT22;23517;50.390;8.616;2023-08-17T15:26:13;26.80;37.30
37678;DHT22;23517;50.390;8.616;2023-08-17T15:28:41;26.60;37.50
37678;DHT22;23517;50.390;8.616;2023-08-17T15:31:07;26.60;37.30
37678;DHT22;23517;50.390;8.616;2023-08-17T15:33:39;26.80;37.30
37678;DHT22;23517;50.390;8.616;2023-08-17T15:36:06;26.90;36.70
37678;DHT22;23517;50.390;8.616;2023-08-17T15:38:33;27.10;36.50
37678;DHT22;23517;50.390;8.616;2023-08-17T15:41:00;26.90;36.40
37678;DHT22;23517;50.390;8.616;2023-08-17T15:43:27;26.80;36.40
37678;DHT22;23517;50.390;8.616;2023-08-17T15:45:53;26.80;36.60
37678;DHT22;23517;50.390;8.616;2023-08-17T15:48:20;26.70;36.30
37678;DHT22;23517;50.390;8.616;2023-08-17T15:50:47;26.50;36.30